sensor_id;sensor_type;location;lat;lon;timestamp;pressure;altitude;pressure_sealevel;temperature;humidity
26489;BME280;14169;43.684;10.484;2023-02-11T00:00:29;103594.34;;;2.58;100.00
26489;BME280;14169;43.684;10.484;2023-02-11T00:02:55;103594.50;;;2.61;100.00
26489;BME280;14169;43.684;10.484;2023-02-11T00:05:20;103591.31;;;2.66;100.00
26489;BME280;14169;43.684;10.484;2023-02-11T00:07:45;103588.00;;;2.69;100.00
26489;BME280;14169;43.684;10.484;2023-02-11T00:10:11;103589.19;;;2.75;100.00
26489;BME280;14169;43.684;10.484;2023-02-11T00:12:36;103589.88;;;2.90;100.00
26489;BME280;14169;43.684;10.484;2023-02-11T00:15:03;103583.09;;;2.92;100.00
26489;BME280;14169;43.684;10.484;2023-02-11T00:17:28;103575.44;;;2.94;100.00
26489;BME280;14169;43.684;10.484;2023-02-11T00:19:54;103573.19;;;2.82;100.00
26489;BME280;14169;43.684;10.484;2023-02-11T00:22:19;103575.16;;;2.69;100.00
26489;BME280;14169;43.684;10.484;2023-02-11T00:24:45;103577.09;;;2.55;100.00
26489;BME280;14169;43.684;10.484;2023-02-11T00:27:10;103582.09;;;2.52;100.00
26489;BME280;14169;43.684;10.484;2023-02-11T00:29:37;103583.41;;;2.44;100.00
26489;BME280;14169;43.684;10.484;2023-02-11T00:32:03;103573.78;;;2.40;100.00
26489;BME280;14169;43.684;10.484;2023-02-11T00:34:32;103576.00;;;2.32;100.00
26489;BME280;14169;43.684;10.484;2023-02-11T00:36:58;103579.91;;;2.24;100.00
26489;BME280;14169;43.684;10.484;2023-02-11T00:39:23;103585.06;;;2.07;100.00
26489;BME280;14169;43.684;10.484;2023-02-11T00:41:48;103600.41;;;1.72;100.00
26489;BME280;14169;43.684;10.484;2023-02-11T00:44:14;103591.28;;;1.27;100.00
26489;BME280;14169;43.684;10.484;2023-02-11T00:46:39;103591.34;;;0.96;100.00
26489;BME280;14169;43.684;10.484;2023-02-11T00:49:05;103594.53;;;0.76;100.00
26489;BME280;14169;43.684;10.484;2023-02-11T00:51:30;103596.28;;;0.61;100.00
26489;BME280;14169;43.684;10.484;2023-02-11T00:53:55;103606.03;;;0.52;100.00
26489;BME280;14169;43.684;10.484;2023-02-11T00:56:24;103603.59;;;0.39;100.00
26489;BME280;14169;43.684;10.484;2023-02-11T00:58:49;103603.06;;;0.30;100.00
26489;BME280;14169;43.684;10.484;2023-02-11T01:01:15;103602.09;;;0.28;100.00
26489;BME280;14169;43.684;10.484;2023-02-11T01:03:40;103600.28;;;0.25;100.00
26489;BME280;14169;43.684;10.484;2023-02-11T01:06:07;103597.78;;;0.27;100.00
26489;BME280;14169;43.684;10.484;2023-02-11T01:08:33;103603.00;;;0.28;100.00
26489;BME280;14169;43.684;10.484;2023-02-11T01:11:09;103601.25;;;0.27;100.00
26489;BME280;14169;43.684;10.484;2023-02-11T01:13:36;103601.31;;;0.29;100.00
26489;BME280;14169;43.684;10.484;2023-02-11T01:16:02;103605.75;;;0.31;100.00
26489;BME280;14169;43.684;10.484;2023-02-11T01:18:30;103605.00;;;0.34;100.00
26489;BME280;14169;43.684;10.484;2023-02-11T01:20:55;103594.94;;;0.37;100.00
26489;BME280;14169;43.684;10.484;2023-02-11T01:23:21;103604.50;;;0.39;100.00
26489;BME280;14169;43.684;10.484;2023-02-11T01:25:46;103595.09;;;0.40;100.00
26489;BME280;14169;43.684;10.484;2023-02-11T01:28:23;103590.84;;;0.40;100.00
26489;BME280;14169;43.684;10.484;2023-02-11T01:30:49;103590.16;;;0.43;100.00
26489;BME280;14169;43.684;10.484;2023-02-11T01:33:15;103586.22;;;0.33;100.00
26489;BME280;14169;43.684;10.484;2023-02-11T01:35:41;103578.59;;;0.35;100.00
26489;BME280;14169;43.684;10.484;2023-02-11T01:38:13;103578.75;;;0.38;100.00
26489;BME280;14169;43.684;10.484;2023-02-11T01:40:38;103577.88;;;0.37;100.00
26489;BME280;14169;43.684;10.484;2023-02-11T01:43:04;103577.78;;;0.36;100.00
26489;BME280;14169;43.684;10.484;2023-02-11T01:48:17;103570.72;;;0.32;100.00
26489;BME280;14169;43.684;10.484;2023-02-11T01:50:45;103566.91;;;0.40;100.00
26489;BME280;14169;43.684;10.484;2023-02-11T01:53:13;103569.00;;;0.47;100.00
26489;BME280;14169;43.684;10.484;2023-02-11T01:55:58;103564.47;;;0.57;100.00
26489;BME280;14169;43.684;10.484;2023-02-11T01:58:44;103555.25;;;0.61;100.00
26489;BME280;14169;43.684;10.484;2023-02-11T02:01:15;103551.00;;;0.61;100.00
26489;BME280;14169;43.684;10.484;2023-02-11T02:03:44;103545.88;;;0.61;100.00
26489;BME280;14169;43.684;10.484;2023-02-11T02:06:18;103548.78;;;0.68;100.00
26489;BME280;14169;43.684;10.484;2023-02-11T02:11:16;103546.66;;;0.60;100.00
26489;BME280;14169;43.684;10.484;2023-02-11T02:13:41;103541.78;;;0.65;100.00
26489;BME280;14169;43.684;10.484;2023-02-11T02:16:11;103535.63;;;0.61;100.00
26489;BME280;14169;43.684;10.484;2023-02-11T02:33:19;103523.50;;;0.59;100.00
26489;BME280;14169;43.684;10.484;2023-02-11T02:36:03;103532.16;;;0.61;100.00
26489;BME280;14169;43.684;10.484;2023-02-11T02:38:46;103534.81;;;0.62;100.00
26489;BME280;14169;43.684;10.484;2023-02-11T02:41:18;103540.75;;;0.61;100.00
26489;BME280;14169;43.684;10.484;2023-02-11T02:43:48;103536.09;;;0.54;100.00
26489;BME280;14169;43.684;10.484;2023-02-11T02:46:21;103536.22;;;0.41;100.00
26489;BME280;14169;43.684;10.484;2023-02-11T02:48:48;103543.59;;;0.35;100.00
26489;BME280;14169;43.684;10.484;2023-02-11T02:54:34;103543.88;;;0.25;100.00
26489;BME280;14169;43.684;10.484;2023-02-11T03:02:28;103536.72;;;0.20;100.00
26489;BME280;14169;43.684;10.484;2023-02-11T03:10:18;103529.78;;;0.17;100.00
26489;BME280;14169;43.684;10.484;2023-02-11T03:12:47;103525.34;;;0.15;100.00
26489;BME280;14169;43.684;10.484;2023-02-11T03:15:13;103526.25;;;0.15;100.00
26489;BME280;14169;43.684;10.484;2023-02-11T03:17:42;103527.50;;;0.07;100.00
26489;BME280;14169;43.684;10.484;2023-02-11T03:20:13;103525.56;;;0.03;100.00
26489;BME280;14169;43.684;10.484;2023-02-11T03:22:47;103525.56;;;0.03;100.00
26489;BME280;14169;43.684;10.484;2023-02-11T03:25:15;103517.06;;;0.04;100.00
26489;BME280;14169;43.684;10.484;2023-02-11T03:27:42;103511.06;;;0.04;100.00
26489;BME280;14169;43.684;10.484;2023-02-11T03:30:17;103513.72;;;0.05;100.00
26489;BME280;14169;43.684;10.484;2023-02-11T03:32:51;103513.78;;;0.07;100.00
26489;BME280;14169;43.684;10.484;2023-02-11T03:35:24;103513.97;;;0.10;100.00
26489;BME280;14169;43.684;10.484;2023-02-11T03:37:58;103507.59;;;0.18;100.00
26489;BME280;14169;43.684;10.484;2023-02-11T03:40:26;103507.91;;;0.24;100.00
26489;BME280;14169;43.684;10.484;2023-02-11T03:42:57;103504.56;;;0.25;100.00
26489;BME280;14169;43.684;10.484;2023-02-11T03:45:24;103513.22;;;0.27;100.00
26489;BME280;14169;43.684;10.484;2023-02-11T03:47:56;103509.81;;;0.28;100.00
26489;BME280;14169;43.684;10.484;2023-02-11T03:50:23;103501.16;;;0.26;100.00
26489;BME280;14169;43.684;10.484;2023-02-11T03:52:50;103504.38;;;0.22;100.00
26489;BME280;14169;43.684;10.484;2023-02-11T03:55:18;103501.66;;;0.19;100.00
26489;BME280;14169;43.684;10.484;2023-02-11T03:57:46;103500.84;;;0.20;100.00
26489;BME280;14169;43.684;10.484;2023-02-11T04:00:12;103511.09;;;0.20;100.00
26489;BME280;14169;43.684;10.484;2023-02-11T04:02:38;103500.75;;;0.18;100.00
26489;BME280;14169;43.684;10.484;2023-02-11T04:05:05;103501.50;;;0.16;100.00
26489;BME280;14169;43.684;10.484;2023-02-11T04:07:31;103507.41;;;0.15;100.00
26489;BME280;14169;43.684;10.484;2023-02-11T04:09:57;103510.69;;;0.12;100.00
26489;BME280;14169;43.684;10.484;2023-02-11T04:12:22;103513.00;;;0.08;100.00
26489;BME280;14169;43.684;10.484;2023-02-11T04:14:48;103506.75;;;0.03;100.00
26489;BME280;14169;43.684;10.484;2023-02-11T04:17:13;103507.56;;;0.02;100.00
26489;BME280;14169;43.684;10.484;2023-02-11T04:19:38;103513.72;;;0.05;100.00
26489;BME280;14169;43.684;10.484;2023-02-11T04:22:04;103511.22;;;0.07;100.00
26489;BME280;14169;43.684;10.484;2023-02-11T04:24:30;103512.28;;;0.10;100.00
26489;BME280;14169;43.684;10.484;2023-02-11T04:26:55;103509.22;;;0.01;100.00
26489;BME280;14169;43.684;10.484;2023-02-11T04:29:21;103510.09;;;0.02;100.00
26489;BME280;14169;43.684;10.484;2023-02-11T04:31:46;103520.44;;;0.03;100.00
26489;BME280;14169;43.684;10.484;2023-02-11T04:34:12;103517.88;;;0.03;100.00
26489;BME280;14169;43.684;10.484;2023-02-11T04:36:37;103515.13;;;0.00;100.00
26489;BME280;14169;43.684;10.484;2023-02-11T04:39:03;103516.56;;;-0.05;100.00
26489;BME280;14169;43.684;10.484;2023-02-11T04:41:28;103509.44;;;-0.10;100.00
26489;BME280;14169;43.684;10.484;2023-02-11T04:43:54;103524.34;;;-0.18;100.00
26489;BME280;14169;43.684;10.484;2023-02-11T04:46:19;103512.63;;;-0.29;100.00
26489;BME280;14169;43.684;10.484;2023-02-11T04:48:45;103514.22;;;-0.31;100.00
26489;BME280;14169;43.684;10.484;2023-02-11T04:51:10;103519.50;;;-0.28;100.00
26489;BME280;14169;43.684;10.484;2023-02-11T04:53:35;103515.47;;;-0.25;100.00
26489;BME280;14169;43.684;10.484;2023-02-11T04:56:01;103523.22;;;-0.23;100.00
26489;BME280;14169;43.684;10.484;2023-02-11T04:58:26;103523.56;;;-0.32;100.00
26489;BME280;14169;43.684;10.484;2023-02-11T05:00:52;103523.84;;;-0.42;100.00
26489;BME280;14169;43.684;10.484;2023-02-11T05:03:17;103524.22;;;-0.50;100.00
26489;BME280;14169;43.684;10.484;2023-02-11T05:05:43;103523.94;;;-0.55;100.00
26489;BME280;14169;43.684;10.484;2023-02-11T05:08:09;103526.75;;;-0.65;100.00
26489;BME280;14169;43.684;10.484;2023-02-11T05:10:35;103525.72;;;-0.68;100.00
26489;BME280;14169;43.684;10.484;2023-02-11T05:13:01;103521.09;;;-0.74;100.00
26489;BME280;14169;43.684;10.484;2023-02-11T05:15:26;103527.63;;;-0.79;100.00
26489;BME280;14169;43.684;10.484;2023-02-11T05:17:52;103519.16;;;-0.78;100.00
26489;BME280;14169;43.684;10.484;2023-02-11T05:20:19;103521.91;;;-0.75;100.00
26489;BME280;14169;43.684;10.484;2023-02-11T05:22:45;103522.19;;;-0.70;100.00
26489;BME280;14169;43.684;10.484;2023-02-11T05:25:10;103521.72;;;-0.78;100.00
26489;BME280;14169;43.684;10.484;2023-02-11T05:27:36;103519.97;;;-0.79;100.00
26489;BME280;14169;43.684;10.484;2023-02-11T05:30:01;103513.16;;;-0.78;100.00
26489;BME280;14169;43.684;10.484;2023-02-11T05:32:27;103515.97;;;-0.74;100.00
26489;BME280;14169;43.684;10.484;2023-02-11T05:34:52;103509.47;;;-0.69;100.00
26489;BME280;14169;43.684;10.484;2023-02-11T05:37:18;103518.13;;;-0.67;100.00
26489;BME280;14169;43.684;10.484;2023-02-11T05:39:43;103518.13;;;-0.67;100.00
26489;BME280;14169;43.684;10.484;2023-02-11T05:42:08;103526.31;;;-0.72;100.00
26489;BME280;14169;43.684;10.484;2023-02-11T05:44:34;103527.63;;;-0.79;100.00
26489;BME280;14169;43.684;10.484;2023-02-11T05:46:59;103535.03;;;-0.83;100.00
26489;BME280;14169;43.684;10.484;2023-02-11T05:49:25;103526.81;;;-0.92;100.00
26489;BME280;14169;43.684;10.484;2023-02-11T05:51:50;103535.00;;;-0.98;100.00
26489;BME280;14169;43.684;10.484;2023-02-11T05:54:16;103538.97;;;-1.03;100.00
26489;BME280;14169;43.684;10.484;2023-02-11T05:56:41;103530.94;;;-1.09;100.00
26489;BME280;14169;43.684;10.484;2023-02-11T05:59:07;103534.91;;;-1.14;100.00
26489;BME280;14169;43.684;10.484;2023-02-11T06:01:32;103541.69;;;-1.15;100.00
26489;BME280;14169;43.684;10.484;2023-02-11T06:03:58;103540.78;;;-1.15;100.00
26489;BME280;14169;43.684;10.484;2023-02-11T06:06:24;103532.94;;;-1.18;100.00
26489;BME280;14169;43.684;10.484;2023-02-11T06:08:49;103531.75;;;-1.23;100.00
26489;BME280;14169;43.684;10.484;2023-02-11T06:11:15;103530.78;;;-1.25;100.00
26489;BME280;14169;43.684;10.484;2023-02-11T06:13:41;103532.19;;;-1.30;100.00
26489;BME280;14169;43.684;10.484;2023-02-11T06:16:07;103535.63;;;-1.30;100.00
26489;BME280;14169;43.684;10.484;2023-02-11T06:18:32;103533.25;;;-1.27;100.00
26489;BME280;14169;43.684;10.484;2023-02-11T06:20:58;103544.53;;;-1.23;100.00
26489;BME280;14169;43.684;10.484;2023-02-11T06:23:24;103536.88;;;-1.23;100.00
26489;BME280;14169;43.684;10.484;2023-02-11T06:25:50;103541.81;;;-1.26;100.00
26489;BME280;14169;43.684;10.484;2023-02-11T06:28:16;103544.00;;;-1.32;100.00
26489;BME280;14169;43.684;10.484;2023-02-11T06:30:41;103541.25;;;-1.35;100.00
26489;BME280;14169;43.684;10.484;2023-02-11T06:33:07;103543.72;;;-1.37;100.00
26489;BME280;14169;43.684;10.484;2023-02-11T06:35:32;103556.78;;;-1.32;100.00
26489;BME280;14169;43.684;10.484;2023-02-11T06:37:59;103558.53;;;-1.31;100.00
26489;BME280;14169;43.684;10.484;2023-02-11T06:40:25;103559.50;;;-1.29;100.00
26489;BME280;14169;43.684;10.484;2023-02-11T06:42:50;103556.56;;;-1.22;100.00
26489;BME280;14169;43.684;10.484;2023-02-11T06:45:16;103564.59;;;-1.16;100.00
26489;BME280;14169;43.684;10.484;2023-02-11T06:47:41;103563.03;;;-1.14;100.00
26489;BME280;14169;43.684;10.484;2023-02-11T06:50:11;103558.09;;;-1.11;100.00
26489;BME280;14169;43.684;10.484;2023-02-11T06:52:36;103559.22;;;-1.06;100.00
26489;BME280;14169;43.684;10.484;2023-02-11T06:55:02;103564.03;;;-0.97;100.00
26489;BME280;14169;43.684;10.484;2023-02-11T06:57:28;103560.69;;;-0.96;100.00
26489;BME280;14169;43.684;10.484;2023-02-11T06:59:54;103569.41;;;-0.93;100.00
26489;BME280;14169;43.684;10.484;2023-02-11T07:02:19;103572.72;;;-0.81;100.00
26489;BME280;14169;43.684;10.484;2023-02-11T07:04:45;103576.00;;;-0.69;100.00
26489;BME280;14169;43.684;10.484;2023-02-11T07:07:10;103569.81;;;-0.58;100.00
26489;BME280;14169;43.684;10.484;2023-02-11T07:09:36;103572.84;;;-0.50;100.00
26489;BME280;14169;43.684;10.484;2023-02-11T07:12:01;103580.16;;;-0.42;100.00
26489;BME280;14169;43.684;10.484;2023-02-11T07:14:26;103579.56;;;-0.38;100.00
26489;BME280;14169;43.684;10.484;2023-02-11T07:16:52;103574.44;;;-0.23;100.00
26489;BME280;14169;43.684;10.484;2023-02-11T07:19:17;103572.66;;;-0.09;100.00
26489;BME280;14169;43.684;10.484;2023-02-11T07:21:42;103570.97;;;0.06;100.00
26489;BME280;14169;43.684;10.484;2023-02-11T07:24:08;103565.47;;;0.14;100.00
26489;BME280;14169;43.684;10.484;2023-02-11T07:26:34;103568.97;;;0.31;100.00
26489;BME280;14169;43.684;10.484;2023-02-11T07:29:00;103562.53;;;0.53;100.00
26489;BME280;14169;43.684;10.484;2023-02-11T07:31:27;103549.00;;;0.72;100.00
26489;BME280;14169;43.684;10.484;2023-02-11T07:33:54;103560.41;;;0.93;100.00
26489;BME280;14169;43.684;10.484;2023-02-11T07:36:21;103562.16;;;1.10;100.00
26489;BME280;14169;43.684;10.484;2023-02-11T07:38:47;103572.00;;;1.35;100.00
26489;BME280;14169;43.684;10.484;2023-02-11T07:41:15;103572.34;;;1.59;100.00
26489;BME280;14169;43.684;10.484;2023-02-11T07:43:41;103577.81;;;1.82;100.00
26489;BME280;14169;43.684;10.484;2023-02-11T07:46:13;103582.03;;;1.98;100.00
26489;BME280;14169;43.684;10.484;2023-02-11T07:48:39;103583.56;;;2.12;100.00
26489;BME280;14169;43.684;10.484;2023-02-11T07:51:09;103575.84;;;2.29;100.00
26489;BME280;14169;43.684;10.484;2023-02-11T07:53:35;103579.28;;;2.48;100.00
26489;BME280;14169;43.684;10.484;2023-02-11T07:56:02;103577.78;;;2.70;100.00
26489;BME280;14169;43.684;10.484;2023-02-11T07:58:28;103574.41;;;2.90;100.00
26489;BME280;14169;43.684;10.484;2023-02-11T08:00:54;103571.03;;;3.10;100.00
26489;BME280;14169;43.684;10.484;2023-02-11T08:03:19;103579.69;;;3.32;100.00
26489;BME280;14169;43.684;10.484;2023-02-11T08:05:44;103578.22;;;3.57;100.00
26489;BME280;14169;43.684;10.484;2023-02-11T08:08:10;103566.03;;;3.74;100.00
26489;BME280;14169;43.684;10.484;2023-02-11T08:10:35;103565.28;;;3.97;100.00
26489;BME280;14169;43.684;10.484;2023-02-11T08:13:01;103566.53;;;4.06;100.00
26489;BME280;14169;43.684;10.484;2023-02-11T08:15:26;103568.97;;;4.24;100.00
26489;BME280;14169;43.684;10.484;2023-02-11T08:17:52;103574.00;;;4.43;100.00
26489;BME280;14169;43.684;10.484;2023-02-11T08:20:17;103568.97;;;4.68;100.00
26489;BME280;14169;43.684;10.484;2023-02-11T08:22:43;103570.72;;;4.91;100.00
26489;BME280;14169;43.684;10.484;2023-02-11T08:25:08;103582.72;;;5.13;100.00
26489;BME280;14169;43.684;10.484;2023-02-11T08:27:33;103572.34;;;5.37;100.00
26489;BME280;14169;43.684;10.484;2023-02-11T08:29:59;103574.19;;;5.64;100.00
26489;BME280;14169;43.684;10.484;2023-02-11T08:32:26;103568.06;;;5.88;100.00
26489;BME280;14169;43.684;10.484;2023-02-11T08:34:52;103575.13;;;6.18;100.00
26489;BME280;14169;43.684;10.484;2023-02-11T08:37:18;103572.59;;;6.48;100.00
26489;BME280;14169;43.684;10.484;2023-02-11T08:39:43;103570.78;;;6.74;97.81
26489;BME280;14169;43.684;10.484;2023-02-11T08:42:11;103565.53;;;7.02;96.14
26489;BME280;14169;43.684;10.484;2023-02-11T08:44:37;103567.34;;;7.34;94.04
26489;BME280;14169;43.684;10.484;2023-02-11T08:47:02;103573.19;;;7.60;91.73
26489;BME280;14169;43.684;10.484;2023-02-11T08:49:27;103572.16;;;7.86;90.32
26489;BME280;14169;43.684;10.484;2023-02-11T08:51:54;103573.38;;;8.01;88.06
26489;BME280;14169;43.684;10.484;2023-02-11T08:54:20;103567.78;;;8.20;86.31
26489;BME280;14169;43.684;10.484;2023-02-11T08:56:50;103563.75;;;8.33;83.84
26489;BME280;14169;43.684;10.484;2023-02-11T08:59:16;103557.09;;;8.44;82.57
26489;BME280;14169;43.684;10.484;2023-02-11T09:01:42;103559.25;;;8.65;81.02
26489;BME280;14169;43.684;10.484;2023-02-11T09:04:09;103562.13;;;8.78;79.26
26489;BME280;14169;43.684;10.484;2023-02-11T09:06:34;103563.41;;;8.97;78.48
26489;BME280;14169;43.684;10.484;2023-02-11T09:09:00;103574.19;;;9.15;78.26
26489;BME280;14169;43.684;10.484;2023-02-11T09:11:31;103572.75;;;9.31;76.25
26489;BME280;14169;43.684;10.484;2023-02-11T09:13:57;103576.56;;;9.49;75.73
26489;BME280;14169;43.684;10.484;2023-02-11T09:16:25;103572.59;;;9.68;73.94
26489;BME280;14169;43.684;10.484;2023-02-11T09:18:51;103574.63;;;9.85;72.23
26489;BME280;14169;43.684;10.484;2023-02-11T09:21:18;103573.91;;;9.95;69.63
26489;BME280;14169;43.684;10.484;2023-02-11T09:23:44;103575.13;;;10.19;68.45
26489;BME280;14169;43.684;10.484;2023-02-11T09:26:20;103580.53;;;10.31;66.64
26489;BME280;14169;43.684;10.484;2023-02-11T09:28:46;103577.25;;;10.44;66.10
26489;BME280;14169;43.684;10.484;2023-02-11T09:31:14;103586.94;;;10.54;64.13
26489;BME280;14169;43.684;10.484;2023-02-11T09:33:42;103588.63;;;10.49;62.07
26489;BME280;14169;43.684;10.484;2023-02-11T09:36:13;103595.56;;;10.50;59.68
26489;BME280;14169;43.684;10.484;2023-02-11T09:38:39;103587.09;;;10.61;59.20
26489;BME280;14169;43.684;10.484;2023-02-11T09:41:04;103589.97;;;10.84;59.19
26489;BME280;14169;43.684;10.484;2023-02-11T09:43:40;103591.81;;;10.91;58.43
26489;BME280;14169;43.684;10.484;2023-02-11T09:46:12;103586.84;;;11.12;57.55
26489;BME280;14169;43.684;10.484;2023-02-11T09:48:40;103590.50;;;11.26;56.26
26489;BME280;14169;43.684;10.484;2023-02-11T09:51:18;103585.47;;;11.43;55.36
26489;BME280;14169;43.684;10.484;2023-02-11T09:53:48;103585.47;;;11.44;52.99
26489;BME280;14169;43.684;10.484;2023-02-11T09:56:16;103588.13;;;11.50;53.37
26489;BME280;14169;43.684;10.484;2023-02-11T09:58:43;103592.63;;;11.63;52.69
26489;BME280;14169;43.684;10.484;2023-02-11T10:04:00;103587.47;;;11.72;48.51
26489;BME280;14169;43.684;10.484;2023-02-11T10:06:46;103593.84;;;11.97;48.16
26489;BME280;14169;43.684;10.484;2023-02-11T10:12:36;103587.06;;;12.23;46.69
26489;BME280;14169;43.684;10.484;2023-02-11T10:15:29;103598.53;;;12.45;45.36
26489;BME280;14169;43.684;10.484;2023-02-11T10:18:17;103584.63;;;12.52;43.48
26489;BME280;14169;43.684;10.484;2023-02-11T10:23:22;103591.81;;;12.97;43.03
26489;BME280;14169;43.684;10.484;2023-02-11T10:25:52;103583.97;;;13.07;39.97
26489;BME280;14169;43.684;10.484;2023-02-11T10:28:27;103586.72;;;13.34;39.77
26489;BME280;14169;43.684;10.484;2023-02-11T10:31:34;103585.88;;;13.40;38.36
26489;BME280;14169;43.684;10.484;2023-02-11T10:34:06;103569.31;;;13.91;38.05
26489;BME280;14169;43.684;10.484;2023-02-11T10:36:34;103584.16;;;14.14;36.52
26489;BME280;14169;43.684;10.484;2023-02-11T10:39:08;103572.78;;;14.37;35.07
26489;BME280;14169;43.684;10.484;2023-02-11T10:41:40;103569.22;;;14.57;34.33
26489;BME280;14169;43.684;10.484;2023-02-11T10:44:06;103562.16;;;14.80;35.25
26489;BME280;14169;43.684;10.484;2023-02-11T10:46:35;103560.34;;;14.91;35.16
26489;BME280;14169;43.684;10.484;2023-02-11T10:49:02;103563.78;;;15.02;34.92
26489;BME280;14169;43.684;10.484;2023-02-11T10:51:30;103550.44;;;15.36;34.97
26489;BME280;14169;43.684;10.484;2023-02-11T10:56:32;103538.91;;;15.59;33.63
26489;BME280;14169;43.684;10.484;2023-02-11T10:59:32;103537.00;;;15.79;33.56
26489;BME280;14169;43.684;10.484;2023-02-11T11:01:55;103537.91;;;15.78;33.06
26489;BME280;14169;43.684;10.484;2023-02-11T11:07:13;103533.38;;;15.94;32.32
26489;BME280;14169;43.684;10.484;2023-02-11T11:09:55;103532.16;;;16.27;32.88
26489;BME280;14169;43.684;10.484;2023-02-11T11:15:23;103527.31;;;16.66;33.16
26489;BME280;14169;43.684;10.484;2023-02-11T11:20:52;103518.25;;;16.89;33.69
26489;BME280;14169;43.684;10.484;2023-02-11T11:23:22;103512.66;;;16.46;33.84
26489;BME280;14169;43.684;10.484;2023-02-11T11:26:06;103507.53;;;16.32;34.76
26489;BME280;14169;43.684;10.484;2023-02-11T11:28:50;103507.63;;;16.25;36.12
26489;BME280;14169;43.684;10.484;2023-02-11T11:31:20;103502.88;;;16.58;36.63
26489;BME280;14169;43.684;10.484;2023-02-11T11:33:47;103504.06;;;16.97;36.40
26489;BME280;14169;43.684;10.484;2023-02-11T11:36:29;103505.03;;;16.92;35.80
26489;BME280;14169;43.684;10.484;2023-02-11T11:38:59;103497.59;;;17.19;35.31
26489;BME280;14169;43.684;10.484;2023-02-11T11:41:28;103502.19;;;16.37;35.18
26489;BME280;14169;43.684;10.484;2023-02-11T11:46:37;103497.28;;;16.82;36.75
26489;BME280;14169;43.684;10.484;2023-02-11T11:51:41;103490.66;;;16.51;36.11
26489;BME280;14169;43.684;10.484;2023-02-11T11:54:14;103492.78;;;16.21;36.84
26489;BME280;14169;43.684;10.484;2023-02-11T11:57:04;103490.63;;;16.53;37.88
26489;BME280;14169;43.684;10.484;2023-02-11T11:59:35;103489.28;;;16.89;37.94
26489;BME280;14169;43.684;10.484;2023-02-11T12:02:43;103492.97;;;17.36;38.70
26489;BME280;14169;43.684;10.484;2023-02-11T12:05:10;103485.41;;;17.12;36.48
26489;BME280;14169;43.684;10.484;2023-02-11T12:11:04;103492.22;;;17.79;35.96
26489;BME280;14169;43.684;10.484;2023-02-11T12:26:04;103466.66;;;19.09;30.42
26489;BME280;14169;43.684;10.484;2023-02-11T12:59:47;103428.81;;;17.85;31.71
26489;BME280;14169;43.684;10.484;2023-02-11T13:04:53;103420.06;;;17.83;33.15
26489;BME280;14169;43.684;10.484;2023-02-11T13:07:30;103411.75;;;18.04;32.73
26489;BME280;14169;43.684;10.484;2023-02-11T13:10:02;103401.41;;;17.93;32.57
26489;BME280;14169;43.684;10.484;2023-02-11T13:12:32;103406.34;;;18.10;32.29
26489;BME280;14169;43.684;10.484;2023-02-11T13:15:17;103399.53;;;18.41;31.56
26489;BME280;14169;43.684;10.484;2023-02-11T13:17:55;103396.00;;;18.42;31.26
26489;BME280;14169;43.684;10.484;2023-02-11T13:20:41;103402.34;;;17.43;31.87
26489;BME280;14169;43.684;10.484;2023-02-11T13:26:07;103393.09;;;17.70;32.18
26489;BME280;14169;43.684;10.484;2023-02-11T13:28:52;103388.78;;;18.50;31.50
26489;BME280;14169;43.684;10.484;2023-02-11T13:31:19;103385.28;;;19.55;31.23
26489;BME280;14169;43.684;10.484;2023-02-11T13:33:44;103382.28;;;20.29;29.96
26489;BME280;14169;43.684;10.484;2023-02-11T13:36:16;103382.28;;;20.56;28.92
26489;BME280;14169;43.684;10.484;2023-02-11T13:39:00;103376.09;;;20.30;28.09
26489;BME280;14169;43.684;10.484;2023-02-11T13:41:30;103371.28;;;19.82;27.75
26489;BME280;14169;43.684;10.484;2023-02-11T13:46:22;103364.34;;;20.09;27.80
26489;BME280;14169;43.684;10.484;2023-02-11T13:48:50;103363.88;;;20.24;28.20
26489;BME280;14169;43.684;10.484;2023-02-11T13:51:41;103360.34;;;20.25;28.59
26489;BME280;14169;43.684;10.484;2023-02-11T13:54:08;103368.03;;;20.60;28.48
26489;BME280;14169;43.684;10.484;2023-02-11T13:56:43;103362.09;;;20.54;28.48
26489;BME280;14169;43.684;10.484;2023-02-11T14:02:04;103344.22;;;19.42;30.35
26489;BME280;14169;43.684;10.484;2023-02-11T14:11:02;103331.72;;;19.47;31.27
26489;BME280;14169;43.684;10.484;2023-02-11T14:19:36;103336.84;;;20.96;30.64
26489;BME280;14169;43.684;10.484;2023-02-11T14:29:41;103334.03;;;20.19;30.45
26489;BME280;14169;43.684;10.484;2023-02-11T14:41:05;103333.78;;;17.45;31.90
26489;BME280;14169;43.684;10.484;2023-02-11T14:43:58;103329.78;;;17.23;33.30
26489;BME280;14169;43.684;10.484;2023-02-11T14:46:26;103333.03;;;17.40;33.84
26489;BME280;14169;43.684;10.484;2023-02-11T14:48:57;103341.47;;;17.08;33.92
26489;BME280;14169;43.684;10.484;2023-02-11T14:51:37;103341.72;;;16.93;34.66
26489;BME280;14169;43.684;10.484;2023-02-11T14:54:13;103336.97;;;16.61;34.79
26489;BME280;14169;43.684;10.484;2023-02-11T14:56:41;103333.81;;;16.40;35.51
26489;BME280;14169;43.684;10.484;2023-02-11T14:59:21;103341.47;;;17.07;36.16
26489;BME280;14169;43.684;10.484;2023-02-11T15:01:51;103333.16;;;17.34;35.03
26489;BME280;14169;43.684;10.484;2023-02-11T15:04:22;103327.69;;;17.43;35.12
26489;BME280;14169;43.684;10.484;2023-02-11T15:06:48;103327.97;;;17.74;35.04
26489;BME280;14169;43.684;10.484;2023-02-11T15:09:20;103335.72;;;18.21;34.28
26489;BME280;14169;43.684;10.484;2023-02-11T15:11:51;103335.56;;;18.30;33.81